Time;durP1;ratioP1;P1;durP2;ratioP2;P2;SDS_P1;SDS_P2;PMS_P1;PMS_P2;Temp;Humidity;BMP_temperature;BMP_pressure;BME280_temperature;BME280_humidity;BME280_pressure;Samples;Min_cycle;Max_cycle;Signal;HPM_P1;HPM_P2
2021/11/11 00:00:25;;;;;;;7.93;2.22;;;8.70;99.90;;;;;;4965674;28;20070;-64
2021/11/11 00:02:54;;;;;;;11.80;4.20;;;8.60;99.90;;;;;;4938616;28;20043;-66
2021/11/11 00:05:21;;;;;;;10.10;2.53;;;8.60;99.90;;;;;;4948311;28;20386;-69
2021/11/11 00:07:49;;;;;;;10.40;2.88;;;8.60;99.90;;;;;;4945403;28;20074;-66
2021/11/11 00:10:17;;;;;;;11.13;2.65;;;8.60;99.90;;;;;;4948528;28;20082;-66
2021/11/11 00:12:46;;;;;;;7.60;2.75;;;8.60;99.90;;;;;;4948392;28;20329;-66
2021/11/11 00:15:15;;;;;;;10.55;2.67;;;8.60;99.90;;;;;;4956682;28;20077;-64
2021/11/11 00:17:43;;;;;;;10.73;3.25;;;8.60;99.90;;;;;;4954510;28;20066;-66
2021/11/11 00:20:11;;;;;;;12.20;3.30;;;8.60;99.90;;;;;;4965129;28;20133;-65
2021/11/11 00:22:40;;;;;;;10.45;3.08;;;8.60;99.90;;;;;;4965455;28;20796;-63
2021/11/11 00:25:08;;;;;;;9.38;3.13;;;8.60;99.90;;;;;;4965485;28;20129;-68
2021/11/11 00:27:38;;;;;;;9.77;2.90;;;8.60;99.90;;;;;;4964815;28;20043;-63
2021/11/11 00:30:06;;;;;;;9.98;3.28;;;8.50;99.90;;;;;;4954120;28;20467;-67
2021/11/11 00:32:34;;;;;;;11.48;2.58;;;8.50;99.90;;;;;;4964436;28;20070;-63
2021/11/11 00:35:01;;;;;;;12.88;3.50;;;8.50;99.90;;;;;;4966375;28;20051;-64
2021/11/11 00:37:27;;;;;;;8.55;2.75;;;8.50;99.90;;;;;;4961756;28;20043;-64
2021/11/11 00:39:55;;;;;;;13.48;4.13;;;8.50;99.90;;;;;;4948232;28;20062;-63
2021/11/11 00:42:22;;;;;;;9.80;4.03;;;8.50;99.90;;;;;;4962598;28;20126;-64
2021/11/11 00:44:49;;;;;;;10.57;2.58;;;8.50;99.90;;;;;;4943343;28;20125;-64
2021/11/11 00:47:16;;;;;;;7.85;3.08;;;8.50;99.90;;;;;;4948048;28;20043;-62
2021/11/11 00:49:44;;;;;;;12.65;3.20;;;8.40;99.90;;;;;;4961261;28;20473;-63
2021/11/11 00:52:11;;;;;;;7.93;2.95;;;8.40;99.90;;;;;;4949380;28;20118;-63
2021/11/11 00:54:41;;;;;;;12.82;4.40;;;8.40;99.90;;;;;;4945730;28;20067;-65
2021/11/11 00:57:15;;;;;;;8.52;2.83;;;8.40;99.90;;;;;;4960868;28;20139;-62
2021/11/11 00:59:43;;;;;;;11.25;5.85;;;8.40;99.90;;;;;;4945522;28;20054;-63
2021/11/11 01:02:10;;;;;;;8.50;3.75;;;8.40;99.90;;;;;;4961827;28;20071;-64
2021/11/11 01:04:39;;;;;;;13.70;3.58;;;8.30;99.90;;;;;;4962550;28;20051;-63
2021/11/11 01:07:07;;;;;;;7.72;2.33;;;8.30;99.90;;;;;;4966864;28;20133;-65
2021/11/11 01:09:35;;;;;;;6.40;3.95;;;8.30;99.90;;;;;;4979756;28;20575;-63
2021/11/11 01:12:04;;;;;;;7.32;3.00;;;8.30;99.90;;;;;;4967064;28;20046;-64
2021/11/11 01:14:32;;;;;;;12.30;3.53;;;8.20;99.90;;;;;;4980589;28;20138;-64
2021/11/11 01:16:59;;;;;;;8.07;3.10;;;8.30;99.90;;;;;;4961882;28;20050;-68
2021/11/11 01:19:26;;;;;;;4.68;2.17;;;8.20;99.90;;;;;;4968990;28;20054;-63
2021/11/11 01:21:53;;;;;;;8.10;3.28;;;8.20;99.90;;;;;;4985473;28;20133;-66
2021/11/11 01:24:21;;;;;;;7.85;2.97;;;8.20;99.90;;;;;;4953248;28;20178;-66
2021/11/11 01:26:48;;;;;;;5.75;2.63;;;8.20;99.90;;;;;;4967997;28;20523;-64
2021/11/11 01:29:15;;;;;;;8.27;3.40;;;8.10;99.90;;;;;;4968759;28;20043;-62
2021/11/11 01:31:43;;;;;;;14.10;3.45;;;8.10;99.90;;;;;;4983157;28;20054;-63
2021/11/11 01:34:10;;;;;;;7.82;3.03;;;8.20;99.90;;;;;;4968883;28;20444;-63
2021/11/11 01:36:37;;;;;;;12.10;3.88;;;8.10;99.90;;;;;;4953801;28;20086;-63
2021/11/11 01:39:10;;;;;;;7.63;3.05;;;8.10;99.90;;;;;;4950176;28;20122;-64
2021/11/11 01:41:50;;;;;;;;;;;8.10;99.90;;;;;;4948027;28;20065;-63
2021/11/11 01:44:20;;;;;;;6.10;2.55;;;8.10;99.90;;;;;;4962955;28;20348;-65
2021/11/11 01:46:48;;;;;;;7.97;4.15;;;8.10;99.90;;;;;;4962694;28;20142;-64
2021/11/11 01:49:18;;;;;;;8.23;3.42;;;8.00;99.90;;;;;;4950834;28;20071;-64
2021/11/11 01:51:48;;;;;;;8.38;3.17;;;8.00;99.90;;;;;;4946491;28;20059;-62
2021/11/11 01:54:16;;;;;;;;;;;8.00;99.90;;;;;;4963117;28;20121;-67
2021/11/11 01:56:45;;;;;;;10.52;2.83;;;8.00;99.90;;;;;;4981624;28;19929;-64
2021/11/11 01:59:23;;;;;;;9.60;3.67;;;8.00;99.90;;;;;;4982789;28;20786;-63
2021/11/11 02:01:55;;;;;;;10.05;3.22;;;8.00;99.90;;;;;;4975343;28;20113;-63
2021/11/11 02:04:27;;;;;;;19.20;6.97;;;8.00;99.90;;;;;;4982689;28;20078;-70
2021/11/11 02:06:57;;;;;;;17.48;7.90;;;7.90;99.90;;;;;;4948326;28;20860;-66
2021/11/11 02:09:33;;;;;;;10.02;3.53;;;7.90;99.90;;;;;;4948240;28;20624;-64
2021/11/11 02:12:11;;;;;;;11.88;2.92;;;7.90;99.90;;;;;;4948531;28;20059;-66
2021/11/11 02:14:43;;;;;;;7.05;3.38;;;7.80;99.90;;;;;;4963012;28;20070;-63
2021/11/11 02:17:12;;;;;;;8.57;3.42;;;7.80;99.90;;;;;;4964763;28;20070;-64
2021/11/11 02:20:31;;;;;;;7.95;3.17;;;7.80;99.90;;;;;;4964199;28;20082;-64
2021/11/11 02:23:00;;;;;;;9.43;2.90;;;7.80;99.90;;;;;;4949406;28;20141;-64
2021/11/11 02:26:03;;;;;;;12.27;3.75;;;7.70;99.90;;;;;;4945388;28;20051;-63
2021/11/11 02:28:37;;;;;;;14.65;4.45;;;7.70;99.90;;;;;;4958739;28;20110;-62
2021/11/11 02:31:05;;;;;;;8.05;3.47;;;7.70;99.90;;;;;;4946906;28;20039;-65
2021/11/11 02:33:37;;;;;;;16.27;3.40;;;7.70;99.90;;;;;;4963618;28;20153;-63
2021/11/11 02:36:08;;;;;;;14.68;2.97;;;7.70;99.90;;;;;;4961643;28;20051;-63
2021/11/11 02:38:35;;;;;;;16.42;3.83;;;7.70;99.90;;;;;;4944739;28;20066;-63
2021/11/11 02:41:02;;;;;;;8.50;4.00;;;7.80;99.90;;;;;;4954596;28;20047;-64
2021/11/11 02:43:31;;;;;;;17.02;4.05;;;7.80;99.90;;;;;;4951452;28;20118;-65
2021/11/11 02:46:04;;;;;;;14.52;3.95;;;7.80;99.90;;;;;;4946037;28;20464;-67
2021/11/11 02:48:31;;;;;;;8.48;2.97;;;7.80;99.90;;;;;;4959497;28;20137;-66
2021/11/11 02:50:59;;;;;;;17.95;3.63;;;7.80;99.90;;;;;;4961803;28;20372;-67
2021/11/11 02:53:26;;;;;;;9.23;4.15;;;7.80;99.90;;;;;;4946280;28;20117;-63
2021/11/11 02:55:53;;;;;;;12.88;3.15;;;7.70;99.90;;;;;;4945367;28;20059;-63
2021/11/11 02:58:23;;;;;;;11.18;3.28;;;7.80;99.90;;;;;;4944807;28;20042;-65
2021/11/11 03:01:01;;;;;;;9.32;2.08;;;7.80;99.90;;;;;;4960158;28;20062;-65
2021/11/11 03:03:30;;;;;;;14.35;2.78;;;7.80;99.90;;;;;;4959091;28;20437;-64
2021/11/11 03:05:58;;;;;;;11.65;2.80;;;7.70;99.90;;;;;;4962723;28;20058;-63
2021/11/11 03:08:27;;;;;;;9.13;3.17;;;7.80;99.90;;;;;;4944462;28;20065;-62
2021/11/11 03:10:57;;;;;;;14.07;2.42;;;7.90;99.90;;;;;;4962921;28;20077;-66
2021/11/11 03:13:35;;;;;;;7.45;3.08;;;7.90;99.90;;;;;;4961442;28;20805;-64
2021/11/11 03:16:06;;;;;;;18.60;3.42;;;7.90;99.90;;;;;;4962710;28;20130;-63
2021/11/11 03:18:34;;;;;;;9.55;2.28;;;7.80;99.90;;;;;;4943694;28;20066;-62
2021/11/11 03:21:01;;;;;;;10.70;4.43;;;7.80;99.90;;;;;;4948151;28;20075;-64
2021/11/11 03:23:28;;;;;;;12.13;3.25;;;7.80;99.90;;;;;;4948000;28;20047;-66
2021/11/11 03:25:58;;;;;;;10.20;2.78;;;7.80;99.90;;;;;;4959891;28;20039;-63
2021/11/11 03:28:32;;;;;;;10.07;3.15;;;7.80;99.90;;;;;;4945558;28;20051;-66
2021/11/11 03:31:00;;;;;;;16.90;3.40;;;7.80;99.90;;;;;;4959775;28;20070;-65
2021/11/11 03:33:29;;;;;;;10.90;3.33;;;7.80;99.90;;;;;;4962093;28;20063;-66
2021/11/11 03:35:57;;;;;;;16.60;4.00;;;7.70;99.90;;;;;;4959320;28;20083;-64
2021/11/11 03:38:24;;;;;;;8.40;2.72;;;7.70;99.90;;;;;;4962675;28;20051;-66
2021/11/11 03:40:51;;;;;;;10.32;3.85;;;7.60;99.90;;;;;;4959165;28;20071;-63
2021/11/11 03:43:27;;;;;;;6.13;2.47;;;7.50;99.90;;;;;;4951132;28;20580;-62
2021/11/11 03:46:01;;;;;;;9.90;4.68;;;7.40;99.90;;;;;;4945485;28;20337;-66
2021/11/11 03:48:28;;;;;;;8.77;2.88;;;7.30;99.90;;;;;;4960489;28;20043;-68
2021/11/11 03:50:58;;;;;;;6.82;3.92;;;7.30;99.90;;;;;;4958328;28;20039;-66
2021/11/11 03:53:25;;;;;;;9.52;2.40;;;7.20;99.90;;;;;;4946397;28;20039;-64
2021/11/11 03:55:54;;;;;;;9.93;3.15;;;7.20;99.90;;;;;;4962197;28;20511;-64
2021/11/11 03:58:22;;;;;;;10.00;2.92;;;7.10;99.90;;;;;;4963045;28;20438;-65
2021/11/11 04:00:50;;;;;;;11.02;3.75;;;7.10;99.90;;;;;;4960768;28;20172;-65
2021/11/11 04:03:17;;;;;;;11.80;2.78;;;7.00;99.90;;;;;;4955084;28;20496;-64
2021/11/11 04:05:45;;;;;;;7.60;2.22;;;7.00;99.90;;;;;;4965185;28;20104;-66
2021/11/11 04:08:17;;;;;;;12.55;3.45;;;6.90;99.90;;;;;;4966346;28;20161;-63
2021/11/11 04:10:48;;;;;;;9.70;3.97;;;6.90;99.90;;;;;;4944552;28;20189;-63
2021/11/11 04:13:18;;;;;;;6.25;2.30;;;6.80;99.90;;;;;;4954148;28;20047;-63
2021/11/11 04:15:45;;;;;;;10.85;2.95;;;6.80;99.90;;;;;;4956016;28;20509;-62
2021/11/11 04:18:13;;;;;;;9.23;2.92;;;6.80;99.90;;;;;;4946390;28;20149;-63
2021/11/11 04:20:41;;;;;;;12.30;2.75;;;6.80;99.90;;;;;;4960164;28;20157;-62
2021/11/11 04:23:08;;;;;;;7.53;2.70;;;6.70;99.90;;;;;;4961206;28;20480;-65
2021/11/11 04:26:21;;;;;;;5.20;2.65;;;6.60;99.90;;;;;;4960252;28;20047;-63
2021/11/11 04:28:33;;;;;;;8.20;2.97;;;6.50;99.90;;;;;;4940601;28;20052;-63
2021/11/11 04:31:10;;;;;;;6.15;2.92;;;6.30;99.90;;;;;;4947394;28;20051;-66
2021/11/11 04:33:40;;;;;;;6.63;4.05;;;6.30;99.90;;;;;;4947164;28;20051;-62
2021/11/11 04:36:25;;;;;;;6.90;2.63;;;6.10;99.90;;;;;;4945527;28;20050;-70
2021/11/11 04:39:18;;;;;;;9.10;3.15;;;6.10;99.90;;;;;;4963227;28;20043;-63
2021/11/11 04:52:40;;;;;;;9.27;3.17;;;6.00;99.90;;;;;;4965224;28;20129;-63
2021/11/11 05:05:54;;;;;;;8.55;2.72;;;6.00;99.90;;;;;;4972675;28;20051;-66
2021/11/11 05:08:21;;;;;;;8.07;3.25;;;6.00;99.90;;;;;;4977552;28;20061;-65
2021/11/11 05:10:52;;;;;;;7.70;3.40;;;5.90;99.90;;;;;;4979849;28;20043;-71
2021/11/11 05:13:19;;;;;;;9.23;2.55;;;6.00;99.90;;;;;;4967069;28;20372;-63
2021/11/11 05:15:47;;;;;;;5.10;2.78;;;6.00;99.90;;;;;;4984800;28;20038;-62
2021/11/11 05:18:15;;;;;;;9.25;2.85;;;6.00;99.90;;;;;;4951882;28;20055;-65
2021/11/11 05:20:42;;;;;;;10.48;3.05;;;6.00;99.90;;;;;;4964862;28;20118;-69
2021/11/11 05:23:09;;;;;;;9.95;3.63;;;6.00;99.90;;;;;;4968497;28;20121;-64
2021/11/11 05:25:38;;;;;;;6.97;2.97;;;6.00;99.90;;;;;;4979295;28;20051;-64
2021/11/11 05:28:06;;;;;;;7.82;3.97;;;6.00;99.90;;;;;;4983155;28;20050;-67
2021/11/11 05:30:35;;;;;;;9.03;3.50;;;6.00;99.90;;;;;;4964928;28;20445;-65
2021/11/11 05:33:02;;;;;;;6.75;3.85;;;6.00;99.90;;;;;;4965864;28;20046;-64
2021/11/11 05:35:30;;;;;;;10.13;3.55;;;6.00;99.90;;;;;;4965680;28;20408;-65
2021/11/11 05:37:58;;;;;;;8.50;2.95;;;6.00;99.90;;;;;;4967214;28;20133;-62
2021/11/11 05:40:26;;;;;;;18.15;4.50;;;6.00;99.90;;;;;;4964945;28;20073;-67
2021/11/11 05:42:53;;;;;;;5.80;3.35;;;6.00;99.90;;;;;;4962745;28;20055;-65
2021/11/11 05:45:23;;;;;;;6.32;3.65;;;6.00;99.90;;;;;;4969178;28;20054;-64
2021/11/11 05:47:55;;;;;;;7.63;3.80;;;6.00;99.90;;;;;;4959003;28;20047;-71
2021/11/11 05:50:22;;;;;;;8.80;3.80;;;6.00;99.90;;;;;;4962086;28;20051;-65
2021/11/11 05:52:50;;;;;;;11.65;3.70;;;6.00;99.90;;;;;;4946792;28;20059;-65
2021/11/11 05:55:19;;;;;;;6.80;3.55;;;5.90;99.90;;;;;;4959962;28;20050;-63
2021/11/11 05:57:46;;;;;;;9.77;4.18;;;5.90;99.90;;;;;;4961598;28;20069;-62
2021/11/11 06:00:16;;;;;;;7.78;3.15;;;5.90;99.90;;;;;;4947083;28;20075;-63
2021/11/11 06:02:51;;;;;;;7.10;3.50;;;5.80;99.90;;;;;;4959867;28;20595;-65
2021/11/11 06:05:22;;;;;;;12.77;4.80;;;5.80;99.90;;;;;;4962977;28;20390;-63
2021/11/11 06:07:52;;;;;;;5.20;3.35;;;5.80;99.90;;;;;;4948534;28;20137;-63
2021/11/11 06:10:19;;;;;;;9.55;3.03;;;5.80;99.90;;;;;;4945067;28;20067;-63
2021/11/11 06:12:46;;;;;;;5.28;1.90;;;5.70;99.90;;;;;;4960957;28;20508;-63
2021/11/11 06:15:13;;;;;;;9.52;4.72;;;5.70;99.90;;;;;;4960786;28;20069;-63
2021/11/11 06:17:41;;;;;;;6.75;2.72;;;5.70;99.90;;;;;;4952215;28;20055;-62
2021/11/11 06:20:30;;;;;;;9.23;3.60;;;5.70;99.90;;;;;;4960593;28;20199;-62
2021/11/11 06:22:58;;;;;;;12.35;3.72;;;5.70;99.90;;;;;;4979818;28;20532;-63
2021/11/11 06:25:27;;;;;;;5.80;3.45;;;5.70;99.90;;;;;;4963551;28;20470;-63
2021/11/11 06:27:58;;;;;;;3.60;2.65;;;5.60;99.90;;;;;;4980684;28;20519;-63
2021/11/11 06:30:26;;;;;;;8.60;3.22;;;5.60;99.90;;;;;;4978992;28;20046;-64
2021/11/11 06:32:54;;;;;;;9.15;3.67;;;5.60;99.90;;;;;;4983163;28;20165;-63
2021/11/11 06:35:31;;;;;;;5.68;3.10;;;5.70;99.90;;;;;;4979400;28;20062;-65
2021/11/11 06:38:00;;;;;;;9.20;4.65;;;5.70;99.90;;;;;;4967725;28;20078;-62
2021/11/11 06:40:28;;;;;;;12.13;4.43;;;5.80;99.90;;;;;;4948813;28;20145;-66
2021/11/11 06:42:56;;;;;;;10.85;3.88;;;5.90;99.90;;;;;;4973414;28;20065;-62
2021/11/11 06:45:27;;;;;;;10.20;4.13;;;6.00;99.90;;;;;;4965779;28;20125;-62
2021/11/11 06:47:54;;;;;;;7.07;3.28;;;6.10;99.90;;;;;;4970325;28;20051;-69
2021/11/11 06:50:21;;;;;;;17.23;4.00;;;6.20;99.90;;;;;;4963664;28;20046;-64
2021/11/11 06:52:48;;;;;;;11.80;3.30;;;6.30;99.90;;;;;;4968111;28;20051;-63
2021/11/11 06:55:16;;;;;;;16.10;4.97;;;6.30;99.90;;;;;;4962019;28;20085;-63
2021/11/11 06:57:43;;;;;;;7.90;4.72;;;6.40;99.90;;;;;;4972215;28;20082;-63
2021/11/11 07:00:15;;;;;;;9.00;3.47;;;6.40;99.90;;;;;;4979384;28;20387;-63
2021/11/11 07:02:43;;;;;;;8.52;3.50;;;6.50;99.90;;;;;;4978475;28;20372;-64
2021/11/11 07:05:12;;;;;;;11.07;3.72;;;6.50;99.90;;;;;;4979755;28;20042;-64
2021/11/11 07:07:39;;;;;;;11.13;3.80;;;6.50;99.90;;;;;;4969634;28;20699;-68
2021/11/11 07:10:07;;;;;;;20.77;4.00;;;6.50;99.90;;;;;;4961417;28;20174;-64
2021/11/11 07:12:34;;;;;;;13.30;3.28;;;6.50;99.90;;;;;;4963196;28;20054;-66
2021/11/11 07:15:05;;;;;;;8.23;3.38;;;6.60;99.90;;;;;;4963405;28;20050;-64
2021/11/11 07:17:34;;;;;;;17.75;5.05;;;6.60;99.90;;;;;;4965256;28;20424;-64
2021/11/11 07:20:03;;;;;;;12.25;3.92;;;6.50;99.90;;;;;;4964559;28;20089;-69
2021/11/11 07:22:30;;;;;;;9.20;3.88;;;6.60;99.90;;;;;;4962645;28;20517;-64
2021/11/11 07:24:58;;;;;;;13.05;4.00;;;6.60;99.90;;;;;;4942761;28;20725;-67
2021/11/11 07:27:25;;;;;;;14.82;5.10;;;6.60;99.90;;;;;;4943037;28;20542;-65
2021/11/11 07:29:52;;;;;;;8.93;3.42;;;6.70;99.90;;;;;;4945808;28;20094;-67
2021/11/11 07:32:19;;;;;;;22.50;4.95;;;6.70;99.90;;;;;;4943374;28;20709;-64
2021/11/11 07:34:46;;;;;;;12.82;3.58;;;6.70;99.90;;;;;;4944204;28;20082;-66
2021/11/11 07:37:13;;;;;;;17.20;4.88;;;6.80;99.90;;;;;;4943969;28;20047;-64
2021/11/11 07:39:40;;;;;;;11.73;5.45;;;6.80;99.90;;;;;;4946076;28;20126;-65
2021/11/11 07:42:07;;;;;;;12.50;3.55;;;6.80;99.90;;;;;;4943990;28;20050;-68
2021/11/11 07:44:34;;;;;;;14.45;4.38;;;6.90;99.90;;;;;;4952516;28;20078;-63
2021/11/11 07:47:01;;;;;;;11.43;4.30;;;6.90;99.90;;;;;;4944478;28;20054;-62
2021/11/11 07:49:28;;;;;;;7.82;3.30;;;7.00;99.90;;;;;;4944137;28;20063;-64
2021/11/11 07:51:55;;;;;;;10.98;3.97;;;7.00;99.90;;;;;;4946007;28;20070;-62
2021/11/11 07:54:22;;;;;;;9.30;4.40;;;7.10;99.90;;;;;;4946774;28;20055;-64
2021/11/11 07:56:49;;;;;;;15.55;5.57;;;7.10;99.90;;;;;;4944077;28;20169;-65
2021/11/11 07:59:16;;;;;;;10.32;4.53;;;7.20;99.90;;;;;;4944638;28;20139;-64
2021/11/11 08:01:43;;;;;;;14.25;4.30;;;7.20;99.90;;;;;;4945505;28;20154;-62
2021/11/11 08:04:12;;;;;;;17.73;4.93;;;7.30;99.90;;;;;;4946038;28;20700;-66
2021/11/11 08:06:39;;;;;;;6.15;2.90;;;7.30;99.90;;;;;;4943667;28;20041;-68
2021/11/11 08:09:06;;;;;;;11.57;4.65;;;7.40;99.90;;;;;;4966420;28;20061;-64
2021/11/11 08:11:38;;;;;;;19.48;4.35;;;7.50;99.90;;;;;;4952684;28;20416;-69
2021/11/11 08:14:06;;;;;;;16.10;3.22;;;7.50;99.90;;;;;;4946326;28;20036;-64
2021/11/11 08:16:33;;;;;;;15.82;4.18;;;7.50;99.90;;;;;;4943377;28;20086;-62
2021/11/11 08:19:00;;;;;;;12.57;2.80;;;7.60;99.90;;;;;;4960218;28;20066;-66
2021/11/11 08:21:27;;;;;;;14.75;3.38;;;7.60;99.90;;;;;;4944371;28;20078;-64
2021/11/11 08:23:54;;;;;;;10.50;4.20;;;7.70;99.90;;;;;;4945031;28;20051;-66
2021/11/11 08:26:21;;;;;;;13.65;3.55;;;7.70;99.90;;;;;;4944071;28;20078;-67
2021/11/11 08:28:48;;;;;;;12.90;5.22;;;7.70;99.90;;;;;;4945585;28;20051;-63
2021/11/11 08:31:16;;;;;;;14.50;3.78;;;7.70;99.90;;;;;;4944601;28;20397;-63
2021/11/11 08:33:43;;;;;;;12.35;3.17;;;7.80;99.90;;;;;;4944959;28;20051;-65
2021/11/11 08:36:11;;;;;;;12.25;3.45;;;7.80;99.90;;;;;;4943139;28;20134;-63
2021/11/11 08:38:43;;;;;;;13.60;3.33;;;7.80;99.90;;;;;;4944064;28;20183;-65
2021/11/11 08:41:11;;;;;;;9.82;5.63;;;7.80;99.90;;;;;;4944083;28;20134;-64
2021/11/11 08:43:38;;;;;;;12.02;3.83;;;7.80;99.90;;;;;;4946392;28;20051;-62
2021/11/11 08:46:06;;;;;;;10.15;3.97;;;7.80;99.90;;;;;;4941974;28;20047;-62
2021/11/11 08:48:33;;;;;;;14.82;4.00;;;7.80;99.90;;;;;;4957044;28;20047;-64
2021/11/11 08:51:00;;;;;;;11.40;3.92;;;7.70;99.90;;;;;;4945375;28;20036;-64
2021/11/11 08:53:29;;;;;;;11.25;3.28;;;7.70;99.90;;;;;;4945025;28;20576;-64
2021/11/11 08:55:57;;;;;;;12.25;3.20;;;7.70;99.90;;;;;;4944102;28;20091;-67
2021/11/11 08:58:24;;;;;;;9.70;4.15;;;7.60;99.90;;;;;;4945421;28;20438;-63
2021/11/11 09:00:52;;;;;;;7.95;3.38;;;7.60;99.90;;;;;;4945340;28;20055;-64
2021/11/11 09:03:19;;;;;;;13.25;4.35;;;7.60;99.90;;;;;;4945168;28;20171;-65
2021/11/11 09:05:47;;;;;;;7.88;3.47;;;7.60;99.90;;;;;;4945381;28;20143;-64
2021/11/11 09:08:14;;;;;;;12.95;2.88;;;7.50;99.90;;;;;;4944904;28;20047;-63
2021/11/11 09:10:43;;;;;;;6.20;2.25;;;7.50;99.90;;;;;;4940645;28;20106;-66
2021/11/11 09:13:27;;;;;;;5.50;2.60;;;7.50;99.90;;;;;;4944757;28;20578;-64
2021/11/11 09:15:54;;;;;;;8.60;2.50;;;7.40;99.90;;;;;;4945207;28;20445;-63
2021/11/11 09:18:21;;;;;;;7.85;2.67;;;7.40;99.90;;;;;;4945251;28;20067;-66
2021/11/11 09:21:00;;;;;;;7.20;3.17;;;7.40;99.90;;;;;;4941596;28;20074;-62
2021/11/11 09:23:27;;;;;;;3.17;2.13;;;7.30;99.90;;;;;;4946633;28;20048;-65
2021/11/11 09:25:54;;;;;;;4.72;1.55;;;7.20;99.90;;;;;;4943021;28;20055;-65
2021/11/11 09:28:21;;;;;;;3.88;2.38;;;7.20;99.90;;;;;;4944215;28;20086;-66
2021/11/11 09:30:48;;;;;;;6.70;2.25;;;7.20;99.90;;;;;;4943751;28;20051;-65
2021/11/11 09:33:15;;;;;;;6.22;2.13;;;7.20;99.90;;;;;;4948391;28;20121;-63
2021/11/11 09:35:42;;;;;;;4.97;2.50;;;7.10;99.90;;;;;;4958070;28;20047;-63
2021/11/11 09:38:09;;;;;;;11.30;3.47;;;7.00;99.90;;;;;;4966852;28;20426;-63
2021/11/11 09:40:36;;;;;;;8.30;2.25;;;7.00;99.90;;;;;;4965711;28;20078;-65
2021/11/11 09:43:03;;;;;;;10.93;2.72;;;7.00;99.90;;;;;;4949718;28;20107;-63
2021/11/11 09:45:33;;;;;;;6.28;2.95;;;7.00;99.90;;;;;;4952820;28;20067;-65
2021/11/11 09:48:02;;;;;;;7.38;2.17;;;7.00;99.90;;;;;;4947936;28;20058;-64
2021/11/11 09:50:30;;;;;;;9.23;2.58;;;7.10;99.90;;;;;;4945731;28;20075;-65
2021/11/11 09:53:04;;;;;;;6.72;3.10;;;7.20;99.90;;;;;;4946212;28;20758;-64
2021/11/11 09:58:38;;;;;;;12.45;2.88;;;7.30;99.90;;;;;;4948195;28;20121;-62
2021/11/11 10:01:11;;;;;;;7.45;1.80;;;7.30;99.90;;;;;;4946110;28;20448;-63
2021/11/11 10:03:43;;;;;;;10.95;3.08;;;7.30;99.90;;;;;;4949489;28;20102;-66
2021/11/11 10:06:17;;;;;;;13.73;3.17;;;7.40;99.90;;;;;;4948216;28;20047;-63
2021/11/11 10:08:47;;;;;;;8.40;2.65;;;7.40;99.90;;;;;;4942968;28;20066;-68
2021/11/11 10:11:36;;;;;;;11.00;2.53;;;7.40;99.90;;;;;;4946970;28;20810;-62
2021/11/11 10:14:10;;;;;;;11.68;2.53;;;7.50;99.90;;;;;;4961433;28;20693;-63
2021/11/11 10:16:42;;;;;;;19.95;3.65;;;7.50;99.90;;;;;;4945244;28;20058;-68
2021/11/11 10:19:09;;;;;;;9.52;2.38;;;7.60;99.90;;;;;;4945787;28;20692;-63
2021/11/11 10:21:41;;;;;;;7.22;2.40;;;7.60;99.90;;;;;;4945877;28;20074;-64
2021/11/11 10:24:29;;;;;;;10.20;3.08;;;7.60;99.90;;;;;;4946446;28;20059;-66
2021/11/11 10:27:07;;;;;;;12.18;3.70;;;7.70;99.90;;;;;;4945024;28;20075;-65
2021/11/11 10:29:47;;;;;;;8.43;3.17;;;7.70;99.90;;;;;;4947767;28;20051;-62
2021/11/11 10:32:17;;;;;;;8.73;3.55;;;7.80;99.90;;;;;;4945024;28;20146;-66
2021/11/11 10:34:56;;;;;;;11.75;3.35;;;7.80;99.90;;;;;;4945679;28;20414;-67
2021/11/11 10:37:27;;;;;;;17.98;2.78;;;7.80;99.90;;;;;;4947113;28;20190;-63
2021/11/11 10:40:00;;;;;;;14.77;3.47;;;7.80;99.90;;;;;;4948238;28;20133;-65
2021/11/11 10:42:30;;;;;;;16.25;3.88;;;7.90;99.90;;;;;;4960096;28;20067;-66
2021/11/11 10:44:58;;;;;;;8.60;2.78;;;7.90;99.90;;;;;;4947480;28;20078;-64
2021/11/11 10:47:31;;;;;;;7.07;2.50;;;7.90;99.90;;;;;;4946232;28;20087;-64
2021/11/11 10:50:01;;;;;;;10.68;4.45;;;7.90;99.90;;;;;;4946141;28;20122;-64
2021/11/11 10:52:35;;;;;;;7.70;2.63;;;7.90;99.90;;;;;;4962651;28;20105;-66
2021/11/11 10:55:10;;;;;;;13.10;3.22;;;7.90;99.90;;;;;;4945854;28;20083;-68
2021/11/11 10:57:48;;;;;;;12.85;3.45;;;7.90;99.90;;;;;;4945612;28;20055;-63
2021/11/11 11:00:30;;;;;;;6.93;3.35;;;7.90;99.90;;;;;;4947065;28;20075;-71
2021/11/11 11:03:11;;;;;;;9.45;2.90;;;7.90;99.90;;;;;;4948966;28;20164;-69
2021/11/11 11:06:02;;;;;;;10.88;3.03;;;7.90;99.90;;;;;;4966532;28;20057;-63
2021/11/11 11:08:38;;;;;;;9.75;2.63;;;7.90;99.90;;;;;;4974090;28;20078;-71
2021/11/11 11:11:07;;;;;;;8.35;2.38;;;7.90;99.90;;;;;;4963869;28;20113;-64
2021/11/11 11:13:49;;;;;;;6.70;2.30;;;7.90;99.90;;;;;;4967360;28;20081;-69
2021/11/11 11:16:18;;;;;;;18.52;4.25;;;7.90;99.90;;;;;;4965927;28;20349;-63
2021/11/11 11:18:49;;;;;;;16.67;3.20;;;7.90;99.90;;;;;;4964532;28;20129;-67
2021/11/11 11:21:19;;;;;;;7.85;2.40;;;8.00;99.90;;;;;;4966464;28;20065;-63
2021/11/11 11:23:51;;;;;;;9.68;3.45;;;8.00;99.90;;;;;;4966711;28;20086;-64
2021/11/11 11:26:24;;;;;;;11.60;2.10;;;8.00;99.90;;;;;;4963964;28;20392;-69
2021/11/11 11:29:01;;;;;;;9.40;2.30;;;8.00;99.90;;;;;;4963207;28;20058;-66
2021/11/11 11:31:49;;;;;;;12.13;3.40;;;8.00;99.90;;;;;;4966501;28;20145;-63
2021/11/11 11:34:28;;;;;;;3.22;1.83;;;8.00;99.90;;;;;;4965538;28;20050;-63
2021/11/11 11:37:05;;;;;;;7.22;1.92;;;8.00;99.90;;;;;;4941617;28;20431;-63
2021/11/11 11:39:36;;;;;;;6.63;2.50;;;8.00;99.90;;;;;;4947388;28;20098;-64
2021/11/11 11:42:08;;;;;;;9.82;2.03;;;8.10;99.90;;;;;;4942118;28;20142;-63
2021/11/11 11:44:39;;;;;;;5.35;2.88;;;8.20;99.90;;;;;;4948003;28;20066;-65
2021/11/11 11:47:22;;;;;;;13.60;3.85;;;8.20;99.90;;;;;;4946530;28;20751;-64
2021/11/11 11:49:54;;;;;;;9.60;2.78;;;8.20;99.90;;;;;;4950192;28;20065;-64
2021/11/11 11:52:23;;;;;;;8.15;2.03;;;8.20;99.90;;;;;;4946283;28;20689;-70
2021/11/11 11:55:06;;;;;;;7.07;2.35;;;8.30;99.90;;;;;;4970153;28;20137;-66
2021/11/11 11:57:50;;;;;;;6.00;3.08;;;8.20;99.90;;;;;;4963284;28;20416;-65
2021/11/11 12:06:00;;;;;;;9.15;3.20;;;8.30;99.90;;;;;;4972214;28;20389;-63
2021/11/11 12:08:52;;;;;;;6.43;2.53;;;8.30;99.90;;;;;;4963793;28;20082;-63
2021/11/11 12:14:32;;;;;;;12.88;2.72;;;8.30;99.90;;;;;;4969179;28;20084;-66
2021/11/11 12:39:52;;;;;;;6.05;1.67;;;8.50;99.90;;;;;;4946180;28;20074;-67
2021/11/11 12:42:30;;;;;;;6.25;2.25;;;8.50;99.90;;;;;;4952479;28;20069;-63
2021/11/11 12:45:00;;;;;;;12.30;3.58;;;8.50;99.90;;;;;;4946293;28;20126;-65
2021/11/11 12:47:45;;;;;;;3.90;1.70;;;8.50;99.90;;;;;;4944395;28;20419;-65
2021/11/11 12:50:32;;;;;;;8.85;1.67;;;8.50;99.90;;;;;;4956744;28;20051;-67
2021/11/11 12:53:14;;;;;;;13.32;3.67;;;8.50;99.90;;;;;;4965581;28;20150;-64
2021/11/11 12:56:10;;;;;;;8.13;2.58;;;8.50;99.90;;;;;;4962414;28;20074;-68
2021/11/11 12:58:51;;;;;;;7.32;2.65;;;8.50;99.90;;;;;;4965622;28;20047;-71
2021/11/11 13:01:33;;;;;;;10.13;3.22;;;8.60;99.90;;;;;;4964872;28;20145;-66
2021/11/11 13:04:00;;;;;;;8.68;3.13;;;8.60;99.90;;;;;;4964079;28;20058;-68
2021/11/11 13:06:35;;;;;;;12.30;3.38;;;8.60;99.90;;;;;;4964939;28;20050;-66
2021/11/11 13:09:20;;;;;;;7.95;2.58;;;8.60;99.90;;;;;;4967497;28;20105;-64
2021/11/11 13:12:05;;;;;;;9.68;3.88;;;8.60;99.90;;;;;;4967941;28;20677;-63
2021/11/11 13:14:53;;;;;;;15.55;4.18;;;8.70;99.90;;;;;;4967492;28;20113;-65
2021/11/11 13:17:28;;;;;;;12.35;4.95;;;8.70;99.90;;;;;;4969162;28;20413;-63
2021/11/11 13:20:05;;;;;;;12.35;5.57;;;8.70;99.90;;;;;;4965985;28;20058;-64
2021/11/11 13:22:48;;;;;;;6.25;2.67;;;8.70;99.90;;;;;;4968770;28;20780;-69
2021/11/11 13:25:37;;;;;;;7.20;2.30;;;8.70;99.90;;;;;;4967784;28;20472;-64
2021/11/11 16:26:26;;;;;;;6.63;1.50;;;9.10;99.90;;;;;;4941455;28;20067;-64
2021/11/11 16:28:58;;;;;;;8.18;2.08;;;9.10;99.90;;;;;;4947777;28;20039;-69
2021/11/11 16:31:39;;;;;;;3.10;1.50;;;9.10;99.90;;;;;;4944904;28;20373;-63
2021/11/11 16:34:06;;;;;;;13.55;2.03;;;9.10;99.90;;;;;;4945917;28;20062;-69
2021/11/11 16:36:38;;;;;;;8.35;2.28;;;9.10;99.90;;;;;;4944918;28;21214;-67
2021/11/11 16:39:04;;;;;;;8.57;2.35;;;9.00;99.90;;;;;;4945333;28;20067;-62
2021/11/11 16:41:34;;;;;;;12.48;3.50;;;9.00;99.90;;;;;;4944586;28;20081;-68
2021/11/11 16:44:01;;;;;;;7.65;2.45;;;9.00;99.90;;;;;;4948617;28;20059;-63
2021/11/11 16:46:28;;;;;;;8.70;2.35;;;9.00;99.90;;;;;;4949488;28;20474;-64
2021/11/11 16:48:55;;;;;;;6.13;3.30;;;9.00;99.90;;;;;;4948812;28;20501;-66
2021/11/11 16:51:22;;;;;;;4.55;1.60;;;9.00;99.90;;;;;;4944912;28;20095;-63
2021/11/11 16:53:52;;;;;;;;;;;9.10;99.90;;;;;;4949989;28;20676;-67
2021/11/11 16:56:19;;;;;;;12.00;1.95;;;9.10;99.90;;;;;;4949046;28;20462;-63
2021/11/11 16:58:46;;;;;;;10.05;1.70;;;9.10;99.90;;;;;;4947931;28;20125;-65
2021/11/11 17:01:13;;;;;;;4.47;1.98;;;9.00;99.90;;;;;;4948451;28;20114;-64
2021/11/11 17:03:40;;;;;;;9.52;2.42;;;9.10;99.90;;;;;;4949660;28;20077;-64
2021/11/11 17:06:07;;;;;;;8.57;1.75;;;9.10;99.90;;;;;;4949000;28;20154;-65